sensor_id;sensor_type;location;lat;lon;timestamp;pressure;altitude;pressure_sealevel;temperature;humidity
21547;BME280;41275;51.912;4.388;2022-10-17T00:03:01;101483.25;;;21.72;54.96
21547;BME280;41275;51.912;4.388;2022-10-17T00:08:22;101477.06;;;21.72;55.19
21547;BME280;41275;51.912;4.388;2022-10-17T00:13:45;101480.84;;;21.71;55.16
21547;BME280;41275;51.912;4.388;2022-10-17T00:19:07;101475.72;;;21.74;55.16
21547;BME280;41275;51.912;4.388;2022-10-17T00:24:30;101459.53;;;21.74;55.18
21547;BME280;41275;51.912;4.388;2022-10-17T00:29:51;101457.47;;;21.66;55.38
21547;BME280;41275;51.912;4.388;2022-10-17T00:35:12;101462.25;;;21.74;55.28
21547;BME280;41275;51.912;4.388;2022-10-17T00:40:33;101456.06;;;21.74;55.36
21547;BME280;41275;51.912;4.388;2022-10-17T00:45:55;101465.63;;;21.85;55.16
21547;BME280;41275;51.912;4.388;2022-10-17T00:51:18;101468.03;;;21.87;55.08
21547;BME280;41275;51.912;4.388;2022-10-17T00:56:41;101465.28;;;21.92;55.07
21547;BME280;41275;51.912;4.388;2022-10-17T01:02:14;101464.63;;;21.76;55.40
21547;BME280;41275;51.912;4.388;2022-10-17T01:07:37;101448.84;;;21.69;55.73
21547;BME280;41275;51.912;4.388;2022-10-17T01:13:12;101445.84;;;21.71;55.85
21547;BME280;41275;51.912;4.388;2022-10-17T01:19:00;101434.53;;;21.69;55.98
21547;BME280;41275;51.912;4.388;2022-10-17T01:24:45;101430.31;;;21.63;56.02
21547;BME280;41275;51.912;4.388;2022-10-17T01:30:40;101435.22;;;21.55;56.26
21547;BME280;41275;51.912;4.388;2022-10-17T01:36:10;101439.56;;;21.51;56.35
21547;BME280;41275;51.912;4.388;2022-10-17T01:41:40;101438.47;;;21.52;56.48
21547;BME280;41275;51.912;4.388;2022-10-17T01:47:06;101424.44;;;21.55;56.34
21547;BME280;41275;51.912;4.388;2022-10-17T01:52:36;101415.50;;;21.60;56.64
21547;BME280;41275;51.912;4.388;2022-10-17T01:58:04;101419.81;;;21.61;56.45
21547;BME280;41275;51.912;4.388;2022-10-17T02:03:27;101407.72;;;21.59;56.55
21547;BME280;41275;51.912;4.388;2022-10-17T02:08:51;101406.13;;;21.58;56.72
21547;BME280;41275;51.912;4.388;2022-10-17T02:14:53;101404.25;;;21.58;56.79
21547;BME280;41275;51.912;4.388;2022-10-17T02:20:25;101400.22;;;21.55;56.88
21547;BME280;41275;51.912;4.388;2022-10-17T02:26:04;101392.38;;;21.59;56.94
21547;BME280;41275;51.912;4.388;2022-10-17T02:31:44;101401.25;;;21.60;57.24
21547;BME280;41275;51.912;4.388;2022-10-17T02:37:08;101407.16;;;21.62;56.99
21547;BME280;41275;51.912;4.388;2022-10-17T02:42:30;101405.78;;;21.64;56.92
21547;BME280;41275;51.912;4.388;2022-10-17T02:48:03;101411.91;;;21.70;56.74
21547;BME280;41275;51.912;4.388;2022-10-17T02:53:30;101418.03;;;21.75;56.74
21547;BME280;41275;51.912;4.388;2022-10-17T02:58:55;101417.94;;;21.86;56.81
21547;BME280;41275;51.912;4.388;2022-10-17T03:04:18;101420.00;;;21.94;57.10
21547;BME280;41275;51.912;4.388;2022-10-17T03:09:39;101416.44;;;21.98;56.91
21547;BME280;41275;51.912;4.388;2022-10-17T03:15:00;101423.63;;;22.03;56.79
21547;BME280;41275;51.912;4.388;2022-10-17T03:20:22;101428.53;;;22.01;56.97
21547;BME280;41275;51.912;4.388;2022-10-17T03:25:43;101425.88;;;21.96;57.10
21547;BME280;41275;51.912;4.388;2022-10-17T03:31:14;101419.75;;;21.90;56.89
21547;BME280;41275;51.912;4.388;2022-10-17T03:36:35;101423.34;;;21.80;57.31
21547;BME280;41275;51.912;4.388;2022-10-17T03:41:57;101436.25;;;21.84;57.17
21547;BME280;41275;51.912;4.388;2022-10-17T03:47:18;101428.66;;;21.91;57.38
21547;BME280;41275;51.912;4.388;2022-10-17T03:52:39;101450.75;;;21.88;57.16
21547;BME280;41275;51.912;4.388;2022-10-17T03:58:01;101440.84;;;21.83;57.34
21547;BME280;41275;51.912;4.388;2022-10-17T04:03:22;101449.47;;;21.85;57.43
21547;BME280;41275;51.912;4.388;2022-10-17T04:08:43;101445.91;;;21.90;57.42
21547;BME280;41275;51.912;4.388;2022-10-17T04:14:05;101437.69;;;22.00;57.62
21547;BME280;41275;51.912;4.388;2022-10-17T04:19:26;101445.91;;;22.14;57.28
21547;BME280;41275;51.912;4.388;2022-10-17T04:24:47;101456.63;;;22.19;57.57
21547;BME280;41275;51.912;4.388;2022-10-17T04:30:09;101456.31;;;22.20;57.58
21547;BME280;41275;51.912;4.388;2022-10-17T04:35:31;101469.09;;;22.15;57.44
21547;BME280;41275;51.912;4.388;2022-10-17T04:40:52;101466.19;;;22.06;57.58
21547;BME280;41275;51.912;4.388;2022-10-17T04:46:14;101457.94;;;21.97;57.91
21547;BME280;41275;51.912;4.388;2022-10-17T04:51:35;101466.53;;;21.99;57.97
21547;BME280;41275;51.912;4.388;2022-10-17T04:56:57;101454.03;;;22.09;57.91
21547;BME280;41275;51.912;4.388;2022-10-17T05:02:18;101476.03;;;22.21;57.88
21547;BME280;41275;51.912;4.388;2022-10-17T05:07:40;101485.88;;;22.30;57.67
21547;BME280;41275;51.912;4.388;2022-10-17T05:13:01;101487.13;;;22.38;57.54
21547;BME280;41275;51.912;4.388;2022-10-17T05:18:22;101469.50;;;22.46;57.58
21547;BME280;41275;51.912;4.388;2022-10-17T05:23:44;101470.22;;;22.51;57.61
21547;BME280;41275;51.912;4.388;2022-10-17T05:29:05;101475.56;;;22.57;57.41
21547;BME280;41275;51.912;4.388;2022-10-17T05:34:26;101477.66;;;22.60;57.48
21547;BME280;41275;51.912;4.388;2022-10-17T05:39:48;101477.66;;;22.60;57.28
21547;BME280;41275;51.912;4.388;2022-10-17T05:45:09;101482.84;;;22.56;57.30
21547;BME280;41275;51.912;4.388;2022-10-17T05:50:30;101481.19;;;22.60;57.08
21547;BME280;41275;51.912;4.388;2022-10-17T05:56:00;101482.19;;;22.64;57.06
21547;BME280;41275;51.912;4.388;2022-10-17T06:01:21;101486.72;;;22.69;57.03
21547;BME280;41275;51.912;4.388;2022-10-17T06:06:42;101501.81;;;22.70;57.06
21547;BME280;41275;51.912;4.388;2022-10-17T06:12:03;101502.69;;;22.65;57.25
21547;BME280;41275;51.912;4.388;2022-10-17T06:17:25;101515.50;;;22.73;57.26
21547;BME280;41275;51.912;4.388;2022-10-17T06:22:46;101527.47;;;22.86;57.36
21547;BME280;41275;51.912;4.388;2022-10-17T06:28:07;101532.22;;;22.94;57.17
21547;BME280;41275;51.912;4.388;2022-10-17T06:33:28;101532.69;;;23.01;56.86
21547;BME280;41275;51.912;4.388;2022-10-17T06:38:50;101534.00;;;23.04;56.75
21547;BME280;41275;51.912;4.388;2022-10-17T06:44:11;101537.19;;;23.06;56.42
21547;BME280;41275;51.912;4.388;2022-10-17T06:49:32;101529.53;;;23.13;56.61
21547;BME280;41275;51.912;4.388;2022-10-17T06:54:54;101558.34;;;23.18;56.39
21547;BME280;41275;51.912;4.388;2022-10-17T07:00:15;101602.88;;;23.20;56.65
21547;BME280;41275;51.912;4.388;2022-10-17T07:05:36;101595.06;;;23.19;56.64
21547;BME280;41275;51.912;4.388;2022-10-17T07:10:58;101635.72;;;23.27;56.29
21547;BME280;41275;51.912;4.388;2022-10-17T07:16:19;101652.41;;;23.30;56.70
21547;BME280;41275;51.912;4.388;2022-10-17T07:21:41;101670.09;;;23.41;56.74
21547;BME280;41275;51.912;4.388;2022-10-17T07:27:02;101706.59;;;23.57;57.10
21547;BME280;41275;51.912;4.388;2022-10-17T07:32:23;101708.38;;;23.67;56.69
21547;BME280;41275;51.912;4.388;2022-10-17T07:37:44;101724.19;;;23.55;56.92
21547;BME280;41275;51.912;4.388;2022-10-17T07:43:06;101740.53;;;23.44;57.28
21547;BME280;41275;51.912;4.388;2022-10-17T07:48:27;101725.28;;;23.35;57.78
21547;BME280;41275;51.912;4.388;2022-10-17T07:53:48;101742.41;;;23.25;57.92
21547;BME280;41275;51.912;4.388;2022-10-17T07:59:10;101748.44;;;23.17;58.52
21547;BME280;41275;51.912;4.388;2022-10-17T08:04:33;101759.25;;;23.17;58.31
21547;BME280;41275;51.912;4.388;2022-10-17T08:09:54;101746.06;;;23.15;58.50
21547;BME280;41275;51.912;4.388;2022-10-17T08:15:15;101725.81;;;23.13;58.88
21547;BME280;41275;51.912;4.388;2022-10-17T08:20:37;101742.47;;;23.20;58.63
21547;BME280;41275;51.912;4.388;2022-10-17T08:25:59;101751.97;;;23.17;58.44
21547;BME280;41275;51.912;4.388;2022-10-17T08:31:21;101718.25;;;23.15;58.81
21547;BME280;41275;51.912;4.388;2022-10-17T08:36:42;101690.88;;;23.21;59.15
21547;BME280;41275;51.912;4.388;2022-10-17T08:42:36;101712.94;;;23.28;58.54
21547;BME280;41275;51.912;4.388;2022-10-17T08:47:57;101725.84;;;23.32;58.76
21547;BME280;41275;51.912;4.388;2022-10-17T08:58:49;101754.47;;;23.33;58.64
21547;BME280;41275;51.912;4.388;2022-10-17T09:14:56;101753.41;;;23.52;58.37
21547;BME280;41275;51.912;4.388;2022-10-17T09:20:27;101753.75;;;23.70;58.09
21547;BME280;41275;51.912;4.388;2022-10-17T09:25:56;101763.22;;;23.67;57.83
21547;BME280;41275;51.912;4.388;2022-10-17T09:31:23;101784.53;;;23.69;57.52
21547;BME280;41275;51.912;4.388;2022-10-17T09:36:46;101818.59;;;23.70;57.34
21547;BME280;41275;51.912;4.388;2022-10-17T09:42:15;101818.06;;;23.68;57.56
21547;BME280;41275;51.912;4.388;2022-10-17T09:47:43;101831.88;;;23.66;57.43
21547;BME280;41275;51.912;4.388;2022-10-17T09:53:14;101843.81;;;23.60;57.15
21547;BME280;41275;51.912;4.388;2022-10-17T09:58:40;101856.59;;;23.55;56.92
21547;BME280;41275;51.912;4.388;2022-10-17T10:04:10;101874.41;;;23.32;57.16
21547;BME280;41275;51.912;4.388;2022-10-17T10:09:33;101867.53;;;22.86;58.39
21547;BME280;41275;51.912;4.388;2022-10-17T10:14:55;101879.16;;;22.82;58.61
21547;BME280;41275;51.912;4.388;2022-10-17T10:20:35;101897.56;;;22.79;58.88
21547;BME280;41275;51.912;4.388;2022-10-17T10:25:58;101888.47;;;22.65;58.99
21547;BME280;41275;51.912;4.388;2022-10-17T10:31:38;101911.09;;;22.69;59.28
21547;BME280;41275;51.912;4.388;2022-10-17T10:37:03;101915.28;;;22.86;59.29
21547;BME280;41275;51.912;4.388;2022-10-17T10:42:28;101915.91;;;22.77;58.90
21547;BME280;41275;51.912;4.388;2022-10-17T10:47:54;101934.81;;;22.33;59.50
21547;BME280;41275;51.912;4.388;2022-10-17T10:53:35;101927.38;;;22.15;59.50
21547;BME280;41275;51.912;4.388;2022-10-17T11:04:35;101927.97;;;22.51;59.14
21547;BME280;41275;51.912;4.388;2022-10-17T11:10:04;101932.44;;;23.05;58.66
21547;BME280;41275;51.912;4.388;2022-10-17T11:15:39;101944.88;;;23.59;57.44
21547;BME280;41275;51.912;4.388;2022-10-17T11:26:58;101956.69;;;23.68;56.77
21547;BME280;41275;51.912;4.388;2022-10-17T11:32:27;101981.97;;;23.83;56.56
21547;BME280;41275;51.912;4.388;2022-10-17T11:44:00;102004.50;;;24.21;54.97
21547;BME280;41275;51.912;4.388;2022-10-17T11:49:28;102010.16;;;24.43;54.46
21547;BME280;41275;51.912;4.388;2022-10-17T11:55:00;102006.09;;;24.65;53.58
21547;BME280;41275;51.912;4.388;2022-10-17T12:01:31;102025.69;;;24.76;52.83
21547;BME280;41275;51.912;4.388;2022-10-17T12:11:54;102028.47;;;25.08;51.99
21547;BME280;41275;51.912;4.388;2022-10-17T12:17:36;102029.78;;;25.11;51.34
21547;BME280;41275;51.912;4.388;2022-10-17T12:23:16;102037.19;;;25.38;51.46
21547;BME280;41275;51.912;4.388;2022-10-17T12:28:43;102043.22;;;25.35;51.11
21547;BME280;41275;51.912;4.388;2022-10-17T12:34:05;102039.53;;;25.12;50.87
21547;BME280;41275;51.912;4.388;2022-10-17T12:44:47;102060.38;;;24.92;51.36
21547;BME280;41275;51.912;4.388;2022-10-17T12:56:17;102076.41;;;24.70;51.16
21547;BME280;41275;51.912;4.388;2022-10-17T13:01:43;102074.84;;;24.64;51.05
21547;BME280;41275;51.912;4.388;2022-10-17T14:36:51;102146.00;;;25.07;48.65
21547;BME280;41275;51.912;4.388;2022-10-17T14:42:20;102139.94;;;24.96;49.06
21547;BME280;41275;51.912;4.388;2022-10-17T14:47:42;102152.28;;;25.03;49.09
21547;BME280;41275;51.912;4.388;2022-10-17T14:58:32;102147.41;;;25.05;49.07
21547;BME280;41275;51.912;4.388;2022-10-17T15:03:53;102162.06;;;25.04;48.98
21547;BME280;41275;51.912;4.388;2022-10-17T15:09:15;102167.28;;;24.95;48.95
21547;BME280;41275;51.912;4.388;2022-10-17T15:14:36;102182.34;;;24.82;49.24
21547;BME280;41275;51.912;4.388;2022-10-17T15:19:57;102184.03;;;24.78;49.32
21547;BME280;41275;51.912;4.388;2022-10-17T15:25:19;102192.63;;;24.61;49.52
21547;BME280;41275;51.912;4.388;2022-10-17T15:30:41;102203.28;;;24.53;49.43
21547;BME280;41275;51.912;4.388;2022-10-17T15:36:02;102215.78;;;24.48;49.18
21547;BME280;41275;51.912;4.388;2022-10-17T15:41:26;102216.09;;;24.42;49.46
21547;BME280;41275;51.912;4.388;2022-10-17T15:46:47;102215.88;;;24.33;49.59
21547;BME280;41275;51.912;4.388;2022-10-17T15:52:08;102214.88;;;24.24;49.09
21547;BME280;41275;51.912;4.388;2022-10-17T15:57:38;102228.25;;;24.10;49.29
21547;BME280;41275;51.912;4.388;2022-10-17T16:03:00;102222.38;;;24.03;49.28
21547;BME280;41275;51.912;4.388;2022-10-17T16:08:21;102233.47;;;24.02;49.75
21547;BME280;41275;51.912;4.388;2022-10-17T16:13:51;102242.66;;;24.00;49.88
21547;BME280;41275;51.912;4.388;2022-10-17T16:19:13;102248.44;;;23.89;50.11
21547;BME280;41275;51.912;4.388;2022-10-17T16:24:36;102247.66;;;23.83;50.37
21547;BME280;41275;51.912;4.388;2022-10-17T16:29:57;102252.34;;;23.72;50.94
21547;BME280;41275;51.912;4.388;2022-10-17T16:35:23;102260.19;;;23.69;50.95
21547;BME280;41275;51.912;4.388;2022-10-17T16:40:45;102271.00;;;23.69;50.95
21547;BME280;41275;51.912;4.388;2022-10-17T16:46:06;102273.72;;;23.64;50.97
21547;BME280;41275;51.912;4.388;2022-10-17T16:51:27;102276.97;;;23.61;51.46
21547;BME280;41275;51.912;4.388;2022-10-17T16:56:49;102284.81;;;23.57;51.64
21547;BME280;41275;51.912;4.388;2022-10-17T17:02:10;102281.88;;;23.53;51.54
21547;BME280;41275;51.912;4.388;2022-10-17T17:07:31;102292.19;;;23.46;51.97
21547;BME280;41275;51.912;4.388;2022-10-17T17:12:53;102296.25;;;23.44;52.02
21547;BME280;41275;51.912;4.388;2022-10-17T17:18:14;102293.25;;;23.45;52.49
21547;BME280;41275;51.912;4.388;2022-10-17T17:23:38;102309.75;;;23.44;52.37
21547;BME280;41275;51.912;4.388;2022-10-17T17:29:00;102320.31;;;23.40;52.29
21547;BME280;41275;51.912;4.388;2022-10-17T17:34:21;102321.13;;;23.36;52.36
21547;BME280;41275;51.912;4.388;2022-10-17T17:39:43;102323.03;;;23.35;52.69
21547;BME280;41275;51.912;4.388;2022-10-17T17:45:04;102326.28;;;23.32;52.70
21547;BME280;41275;51.912;4.388;2022-10-17T17:50:25;102336.53;;;23.30;52.96
21547;BME280;41275;51.912;4.388;2022-10-17T17:55:47;102337.91;;;23.27;52.85
21547;BME280;41275;51.912;4.388;2022-10-17T18:01:09;102331.97;;;23.31;52.86
21547;BME280;41275;51.912;4.388;2022-10-17T18:06:31;102340.06;;;23.31;53.23
21547;BME280;41275;51.912;4.388;2022-10-17T18:11:52;102344.63;;;23.30;52.97
21547;BME280;41275;51.912;4.388;2022-10-17T18:17:13;102345.72;;;23.29;53.41
21547;BME280;41275;51.912;4.388;2022-10-17T18:22:35;102349.22;;;23.30;53.40
21547;BME280;41275;51.912;4.388;2022-10-17T18:27:56;102350.63;;;23.27;53.19
21547;BME280;41275;51.912;4.388;2022-10-17T18:33:18;102353.03;;;23.18;53.26
21547;BME280;41275;51.912;4.388;2022-10-17T18:38:39;102358.44;;;23.18;53.15
21547;BME280;41275;51.912;4.388;2022-10-17T18:44:00;102348.47;;;23.14;53.51
21547;BME280;41275;51.912;4.388;2022-10-17T18:49:22;102363.88;;;23.13;53.60
21547;BME280;41275;51.912;4.388;2022-10-17T18:54:44;102372.00;;;23.08;53.58
21547;BME280;41275;51.912;4.388;2022-10-17T19:00:06;102356.03;;;23.07;53.78
21547;BME280;41275;51.912;4.388;2022-10-17T19:05:28;102370.91;;;23.04;53.63
21547;BME280;41275;51.912;4.388;2022-10-17T19:10:49;102382.25;;;23.01;53.85
21547;BME280;41275;51.912;4.388;2022-10-17T19:16:13;102368.47;;;23.02;54.05
21547;BME280;41275;51.912;4.388;2022-10-17T19:21:34;102385.50;;;23.03;54.17
21547;BME280;41275;51.912;4.388;2022-10-17T19:26:56;102393.34;;;22.99;53.93
21547;BME280;41275;51.912;4.388;2022-10-17T19:32:18;102401.41;;;22.94;54.29
21547;BME280;41275;51.912;4.388;2022-10-17T19:37:39;102388.44;;;22.86;54.54
21547;BME280;41275;51.912;4.388;2022-10-17T19:43:00;102395.75;;;22.81;54.55
21547;BME280;41275;51.912;4.388;2022-10-17T19:48:22;102398.69;;;22.79;54.89
21547;BME280;41275;51.912;4.388;2022-10-17T19:53:44;102408.41;;;22.75;54.93
21547;BME280;41275;51.912;4.388;2022-10-17T19:59:06;102414.09;;;22.73;54.83
21547;BME280;41275;51.912;4.388;2022-10-17T20:04:27;102413.53;;;22.71;55.14
21547;BME280;41275;51.912;4.388;2022-10-17T20:09:49;102414.38;;;22.77;55.23
21547;BME280;41275;51.912;4.388;2022-10-17T20:15:10;102423.28;;;22.77;55.14
21547;BME280;41275;51.912;4.388;2022-10-17T20:20:35;102427.59;;;22.73;55.20
21547;BME280;41275;51.912;4.388;2022-10-17T20:25:58;102438.09;;;22.70;55.56
21547;BME280;41275;51.912;4.388;2022-10-17T20:31:20;102444.84;;;22.67;55.40
21547;BME280;41275;51.912;4.388;2022-10-17T20:36:42;102442.66;;;22.59;55.51
21547;BME280;41275;51.912;4.388;2022-10-17T20:42:03;102448.34;;;22.52;55.70
21547;BME280;41275;51.912;4.388;2022-10-17T20:47:24;102451.84;;;22.53;55.39
21547;BME280;41275;51.912;4.388;2022-10-17T20:52:45;102462.13;;;22.56;55.96
21547;BME280;41275;51.912;4.388;2022-10-17T20:58:08;102460.75;;;22.53;55.96
21547;BME280;41275;51.912;4.388;2022-10-17T21:03:30;102471.03;;;22.57;55.98
21547;BME280;41275;51.912;4.388;2022-10-17T21:08:53;102474.25;;;22.59;55.96
21547;BME280;41275;51.912;4.388;2022-10-17T21:14:14;102480.72;;;22.63;56.02
21547;BME280;41275;51.912;4.388;2022-10-17T21:19:36;102495.59;;;22.60;55.79
21547;BME280;41275;51.912;4.388;2022-10-17T21:24:57;102498.53;;;22.59;56.18
21547;BME280;41275;51.912;4.388;2022-10-17T21:30:19;102508.00;;;22.56;56.03
21547;BME280;41275;51.912;4.388;2022-10-17T21:35:40;102518.50;;;22.52;55.80
21547;BME280;41275;51.912;4.388;2022-10-17T21:41:03;102509.31;;;22.48;56.01
21547;BME280;41275;51.912;4.388;2022-10-17T21:46:25;102513.34;;;22.46;55.83
21547;BME280;41275;51.912;4.388;2022-10-17T21:51:47;102520.88;;;22.39;56.04
21547;BME280;41275;51.912;4.388;2022-10-17T21:57:09;102524.94;;;22.36;55.97
21547;BME280;41275;51.912;4.388;2022-10-17T22:02:30;102513.06;;;22.37;56.03
21547;BME280;41275;51.912;4.388;2022-10-17T22:07:51;102513.59;;;22.39;56.00
21547;BME280;41275;51.912;4.388;2022-10-17T22:13:12;102533.25;;;22.35;56.07
21547;BME280;41275;51.912;4.388;2022-10-17T22:18:34;102538.34;;;22.26;56.10
21547;BME280;41275;51.912;4.388;2022-10-17T22:24:00;102542.44;;;22.28;56.25
21547;BME280;41275;51.912;4.388;2022-10-17T22:29:22;102528.66;;;22.30;56.17
21547;BME280;41275;51.912;4.388;2022-10-17T22:34:43;102530.28;;;22.31;56.54
21547;BME280;41275;51.912;4.388;2022-10-17T22:40:05;102524.88;;;22.31;56.76
21547;BME280;41275;51.912;4.388;2022-10-17T22:45:26;102541.06;;;22.31;56.48
21547;BME280;41275;51.912;4.388;2022-10-17T22:50:48;102539.16;;;22.26;57.12
21547;BME280;41275;51.912;4.388;2022-10-17T22:56:11;102533.25;;;22.24;56.73
21547;BME280;41275;51.912;4.388;2022-10-17T23:01:33;102537.56;;;22.25;56.41
21547;BME280;41275;51.912;4.388;2022-10-17T23:06:54;102535.56;;;22.11;56.75
21547;BME280;41275;51.912;4.388;2022-10-17T23:12:15;102539.53;;;21.98;56.92
21547;BME280;41275;51.912;4.388;2022-10-17T23:17:36;102542.16;;;21.88;56.98
21547;BME280;41275;51.912;4.388;2022-10-17T23:22:58;102538.34;;;21.78;57.01
21547;BME280;41275;51.912;4.388;2022-10-17T23:28:19;102539.44;;;21.77;57.01
21547;BME280;41275;51.912;4.388;2022-10-17T23:33:41;102545.81;;;21.66;57.11
21547;BME280;41275;51.912;4.388;2022-10-17T23:39:03;102541.47;;;21.60;57.39
21547;BME280;41275;51.912;4.388;2022-10-17T23:44:24;102541.13;;;21.51;57.72
21547;BME280;41275;51.912;4.388;2022-10-17T23:49:45;102542.69;;;21.42;57.59
21547;BME280;41275;51.912;4.388;2022-10-17T23:55:07;102542.03;;;21.30;57.79
